createdAt,value
2022-07-29T00:01:45.926Z,97860.63
2022-07-29T00:04:35.635Z,97842.25
2022-07-29T00:07:25.259Z,97847.72
2022-07-29T00:10:12.180Z,97842.13
2022-07-29T00:12:59.048Z,97839.69
2022-07-29T00:15:45.978Z,97851.75
2022-07-29T00:18:33.519Z,97837.75
2022-07-29T00:21:20.512Z,97818.25
2022-07-29T00:24:07.513Z,97814.44
2022-07-29T00:26:56.495Z,97834.91
2022-07-29T00:29:43.599Z,97830.09
2022-07-29T00:32:32.958Z,97809.25
2022-07-29T00:35:38.205Z,97803.19
2022-07-29T00:38:25.085Z,97806.94
2022-07-29T00:41:13.116Z,97797.81
2022-07-29T00:44:00.175Z,97799.91
2022-07-29T00:46:47.105Z,97798.03
2022-07-29T00:49:35.087Z,97800.50
2022-07-29T00:52:22.022Z,97799.81
2022-07-29T00:55:11.952Z,97806.53
2022-07-29T00:57:59.895Z,97796.06
2022-07-29T01:00:46.798Z,97793.66
2022-07-29T01:03:33.721Z,97786.63
2022-07-29T01:06:21.245Z,97799.53
2022-07-29T01:09:08.757Z,97820.50
2022-07-29T01:11:56.039Z,97843.22
2022-07-29T01:14:43.654Z,97844.06
2022-07-29T01:17:52.772Z,97842.00
2022-07-29T01:20:54.961Z,97834.75
2022-07-29T01:23:54.021Z,97818.53
2022-07-29T01:26:55.413Z,97828.31
2022-07-29T01:29:52.208Z,97828.72
2022-07-29T01:32:41.919Z,97823.38
2022-07-29T01:35:39.525Z,97830.84
2022-07-29T01:38:30.112Z,97824.22
2022-07-29T01:41:20.621Z,97826.72
2022-07-29T01:44:21.206Z,97839.66
2022-07-29T01:47:15.029Z,97836.78
2022-07-29T01:50:09.268Z,97840.13
2022-07-29T01:53:04.158Z,97843.03
2022-07-29T01:55:52.827Z,97848.00
2022-07-29T01:58:44.803Z,97846.56
2022-07-29T02:01:34.157Z,97833.47
2022-07-29T02:04:28.939Z,97835.78
2022-07-29T02:07:22.803Z,97827.69
2022-07-29T02:10:13.787Z,97844.31
2022-07-29T02:13:02.813Z,97857.22
2022-07-29T02:15:52.922Z,97838.13
2022-07-29T02:18:42.798Z,97855.19
2022-07-29T02:21:31.377Z,97850.19
2022-07-29T02:24:19.474Z,97848.50
2022-07-29T02:27:08.218Z,97853.91
2022-07-29T02:29:57.200Z,97847.69
2022-07-29T02:32:48.989Z,97848.31
2022-07-29T02:35:20.774Z,97869.09
2022-07-29T02:38:11.290Z,97856.00
2022-07-29T02:40:43.277Z,97869.31
2022-07-29T02:43:11.842Z,97862.84
2022-07-29T02:45:40.667Z,97862.66
2022-07-29T02:48:16.077Z,97865.78
2022-07-29T02:50:53.579Z,97880.91
2022-07-29T02:53:24.568Z,97885.47
2022-07-29T02:56:00.977Z,97897.47
2022-07-29T02:58:38.912Z,97882.97
2022-07-29T03:01:20.962Z,97879.66
2022-07-29T03:03:49.586Z,97908.06
2022-07-29T03:06:37.760Z,97883.19
2022-07-29T03:09:10.456Z,97873.00
2022-07-29T03:11:49.367Z,97871.41
2022-07-29T03:14:20.395Z,97871.78
2022-07-29T03:16:51.921Z,97886.09
2022-07-29T03:19:21.074Z,97892.31
2022-07-29T03:21:47.827Z,97880.69
2022-07-29T03:24:31.907Z,97902.31
2022-07-29T03:27:01.318Z,97887.53
2022-07-29T03:29:33.567Z,97899.34
2022-07-29T03:32:08.397Z,97896.28
2022-07-29T03:34:36.855Z,97892.31
2022-07-29T03:37:03.413Z,97905.19
2022-07-29T03:39:34.039Z,97899.16
2022-07-29T03:42:01.834Z,97900.59
2022-07-29T03:44:32.165Z,97893.56
2022-07-29T03:47:03.047Z,97895.81
2022-07-29T03:49:31.877Z,97894.34
2022-07-29T03:51:59.291Z,97909.91
2022-07-29T03:54:29.349Z,97902.88
2022-07-29T03:57:00.374Z,97925.03
2022-07-29T03:59:27.925Z,97917.81
2022-07-29T04:02:00.255Z,97940.00
2022-07-29T04:04:27.406Z,97931.91
2022-07-29T04:06:55.386Z,97949.50
2022-07-29T04:09:22.054Z,97965.63
2022-07-29T04:12:02.349Z,97947.63
2022-07-29T04:14:31.658Z,97951.75
2022-07-29T04:16:58.233Z,97968.38
2022-07-29T04:19:27.044Z,97981.66
2022-07-29T04:21:55.734Z,97973.19
2022-07-29T04:24:22.293Z,97992.25
2022-07-29T04:26:49.702Z,97978.19
2022-07-29T04:29:16.386Z,97971.56
2022-07-29T04:31:43.742Z,98003.47
2022-07-29T04:34:11.599Z,98022.72
2022-07-29T04:36:40.553Z,98039.13
2022-07-29T04:39:09.612Z,98074.97
2022-07-29T04:41:36.151Z,98061.75
2022-07-29T04:44:07.227Z,98081.28
2022-07-29T04:46:34.958Z,98163.66
2022-07-29T04:49:07.406Z,98143.28
2022-07-29T04:51:34.235Z,98113.09
2022-07-29T04:54:03.118Z,98078.78
2022-07-29T04:56:33.850Z,98068.13
2022-07-29T04:59:00.409Z,98104.03
2022-07-29T05:01:27.067Z,98092.22
2022-07-29T05:03:58.303Z,98100.22
2022-07-29T05:06:26.763Z,98107.19
2022-07-29T05:08:53.419Z,98111.00
2022-07-29T05:11:22.462Z,98084.50
2022-07-29T05:13:52.034Z,98096.31
2022-07-29T05:16:18.690Z,98095.06
2022-07-29T05:18:47.707Z,98115.03
2022-07-29T05:21:14.222Z,98108.59
2022-07-29T05:23:43.010Z,98071.69
2022-07-29T05:26:09.563Z,98030.53
2022-07-29T05:28:36.255Z,98011.78
2022-07-29T05:31:03.136Z,97982.69
2022-07-29T05:33:34.693Z,97996.19
2022-07-29T05:36:06.499Z,97972.22
2022-07-29T05:38:33.846Z,97988.00
2022-07-29T05:41:00.661Z,97971.06
2022-07-29T05:43:31.180Z,97907.88
2022-07-29T05:46:00.270Z,97883.06
2022-07-29T05:48:27.339Z,97853.94
2022-07-29T05:50:54.320Z,97817.28
2022-07-29T05:53:21.275Z,97820.75
2022-07-29T05:55:48.846Z,97921.56
2022-07-29T05:58:15.426Z,98015.09
2022-07-29T06:00:42.078Z,98016.09
2022-07-29T06:03:10.922Z,98026.19
2022-07-29T06:05:42.169Z,98099.78
2022-07-29T06:08:08.775Z,98013.03
2022-07-29T06:10:36.297Z,98049.06
2022-07-29T06:13:03.025Z,98082.03
2022-07-29T06:15:29.602Z,98096.44
2022-07-29T06:18:00.065Z,98102.25
2022-07-29T06:20:33.554Z,98071.78
2022-07-29T06:23:05.365Z,98093.69
2022-07-29T06:25:35.604Z,98132.59
2022-07-29T06:28:02.302Z,98132.41
2022-07-29T06:30:34.442Z,98149.78
2022-07-29T06:33:02.767Z,98119.66
2022-07-29T06:35:39.103Z,98138.63
2022-07-29T06:38:30.122Z,98113.41
2022-07-29T06:41:01.270Z,98130.28
2022-07-29T06:43:45.614Z,98196.59
2022-07-29T06:46:21.829Z,98113.59
2022-07-29T06:48:52.736Z,98115.81
2022-07-29T06:51:23.863Z,98159.66
2022-07-29T06:53:58.403Z,98084.88
2022-07-29T06:56:28.503Z,98194.22
2022-07-29T06:58:57.346Z,98152.47
2022-07-29T07:01:24.065Z,98148.59
2022-07-29T07:03:50.697Z,98167.47
2022-07-29T07:06:17.622Z,98147.53
2022-07-29T07:08:46.769Z,98154.44
2022-07-29T07:11:13.421Z,98172.50
2022-07-29T07:13:39.981Z,98135.75
2022-07-29T07:16:06.861Z,98119.72
2022-07-29T07:18:33.645Z,98147.03
2022-07-29T07:21:00.227Z,98157.59
2022-07-29T07:23:26.848Z,98157.75
2022-07-29T07:25:53.449Z,98166.06
2022-07-29T07:28:24.681Z,98173.34
2022-07-29T07:30:53.935Z,98182.97
2022-07-29T07:33:22.501Z,98162.44
2022-07-29T07:35:49.260Z,98130.59
2022-07-29T07:38:18.133Z,98109.19
2022-07-29T07:40:44.739Z,98091.00
2022-07-29T07:43:13.545Z,98078.13
2022-07-29T07:45:41.105Z,98100.91
2022-07-29T07:48:07.701Z,98138.16
2022-07-29T07:50:34.599Z,98148.94
2022-07-29T07:53:02.991Z,98150.44
2022-07-29T07:55:42.407Z,98136.28
2022-07-29T07:58:16.304Z,98097.66
2022-07-29T08:00:43.104Z,98064.72
2022-07-29T08:03:16.856Z,98072.97
2022-07-29T08:05:44.309Z,98104.47
2022-07-29T08:08:10.992Z,98110.47
2022-07-29T08:10:56.613Z,98098.50
2022-07-29T08:13:26.339Z,98138.97
2022-07-29T08:15:58.712Z,98158.59
2022-07-29T08:18:27.288Z,98156.78
2022-07-29T08:20:54.554Z,98170.38
2022-07-29T08:23:21.565Z,98174.66
2022-07-29T08:25:50.086Z,98171.09
2022-07-29T08:28:20.446Z,98155.91
2022-07-29T08:30:49.127Z,98158.06
2022-07-29T08:33:16.135Z,98175.84
2022-07-29T08:35:42.735Z,98166.06
2022-07-29T08:38:14.207Z,98156.69
2022-07-29T08:40:40.788Z,98134.75
2022-07-29T08:43:08.546Z,98145.19
2022-07-29T08:45:47.379Z,98175.44
2022-07-29T08:48:16.553Z,98134.47
2022-07-29T08:50:46.550Z,98132.88
2022-07-29T08:53:18.535Z,98135.66
2022-07-29T08:55:47.394Z,98123.03
2022-07-29T08:58:15.635Z,98123.25
2022-07-29T09:00:49.771Z,98154.78
2022-07-29T09:03:19.815Z,98139.56
2022-07-29T09:05:48.375Z,98160.94
2022-07-29T09:08:18.537Z,98185.25
2022-07-29T09:10:45.897Z,98163.72
2022-07-29T09:13:12.620Z,98153.34
2022-07-29T09:15:39.555Z,98157.16
2022-07-29T09:18:19.334Z,98151.22
2022-07-29T09:21:12.745Z,98146.34
2022-07-29T09:23:40.647Z,98146.91
2022-07-29T09:26:07.287Z,98142.94
2022-07-29T09:28:33.833Z,98149.41
2022-07-29T09:31:00.429Z,98185.13
2022-07-29T09:33:40.150Z,98176.47
2022-07-29T09:36:09.259Z,98177.19
2022-07-29T09:38:37.567Z,98178.81
2022-07-29T09:41:06.730Z,98185.91
2022-07-29T09:43:38.641Z,98184.78
2022-07-29T09:46:15.001Z,98190.69
2022-07-29T09:48:43.887Z,98162.25
2022-07-29T09:51:37.913Z,98169.84
2022-07-29T09:54:27.221Z,98168.81
2022-07-29T09:56:55.006Z,98173.81
2022-07-29T09:59:27.380Z,98153.28
2022-07-29T10:01:57.739Z,98164.50
2022-07-29T10:04:26.917Z,98172.03
2022-07-29T10:07:04.807Z,98168.94
2022-07-29T10:09:33.164Z,98161.50
2022-07-29T10:12:18.519Z,98171.03
2022-07-29T10:14:45.267Z,98172.69
2022-07-29T10:17:12.077Z,98175.38
2022-07-29T10:19:39.986Z,98166.25
2022-07-29T10:22:09.455Z,98147.09
2022-07-29T10:24:39.668Z,98154.69
2022-07-29T10:27:08.941Z,98141.19
2022-07-29T10:29:36.702Z,98142.09
2022-07-29T10:32:31.630Z,98127.53
2022-07-29T10:35:21.772Z,98122.53
2022-07-29T10:38:05.219Z,98091.66
2022-07-29T10:41:09.163Z,98091.75
2022-07-29T10:43:44.476Z,98096.59
2022-07-29T10:46:15.476Z,98090.41
2022-07-29T10:49:27.829Z,98083.88
2022-07-29T10:52:12.441Z,98082.66
2022-07-29T10:54:50.919Z,98076.91
2022-07-29T10:57:53.042Z,98100.22
2022-07-29T11:00:28.169Z,98084.19
2022-07-29T11:03:00.110Z,98094.19
2022-07-29T11:05:39.920Z,98121.00
2022-07-29T11:08:19.908Z,98123.88
2022-07-29T11:10:54.207Z,98117.25
2022-07-29T11:13:47.254Z,98143.59
2022-07-29T11:16:16.802Z,98124.03
2022-07-29T11:19:13.865Z,98132.78
2022-07-29T11:21:53.448Z,98124.81
2022-07-29T11:24:30.437Z,98117.03
2022-07-29T11:27:23.086Z,98113.88
2022-07-29T11:30:03.353Z,98121.84
2022-07-29T11:32:41.280Z,98127.00
2022-07-29T11:35:37.215Z,98120.59
2022-07-29T11:38:23.570Z,98125.63
2022-07-29T11:41:21.003Z,98113.22
2022-07-29T11:43:54.958Z,98111.63
2022-07-29T11:46:50.534Z,98097.19
2022-07-29T11:49:31.704Z,98091.94
2022-07-29T11:52:03.689Z,98087.81
2022-07-29T11:54:57.129Z,98065.41
2022-07-29T11:57:22.195Z,98061.09
2022-07-29T11:59:49.208Z,98066.44
2022-07-29T12:02:37.343Z,98057.00
2022-07-29T12:05:11.077Z,98057.19
2022-07-29T12:07:41.063Z,98059.41
2022-07-29T12:10:19.868Z,98029.50
2022-07-29T12:12:56.505Z,97991.41
2022-07-29T12:15:45.826Z,97989.91
2022-07-29T12:18:18.288Z,98009.47
2022-07-29T12:20:46.115Z,98025.09
2022-07-29T12:23:13.264Z,98037.50
2022-07-29T12:25:42.058Z,98032.03
2022-07-29T12:28:14.202Z,98028.00
2022-07-29T12:30:49.613Z,98015.78
2022-07-29T12:33:18.555Z,98025.88
2022-07-29T12:36:03.489Z,98021.00
2022-07-29T12:38:36.855Z,97999.00
2022-07-29T12:41:26.464Z,98019.91
2022-07-29T12:43:55.332Z,98033.81
2022-07-29T12:46:24.266Z,98035.97
2022-07-29T12:48:55.698Z,98032.53
2022-07-29T12:51:35.968Z,98024.91
2022-07-29T12:54:11.386Z,98042.03
2022-07-29T12:56:43.749Z,98041.69
2022-07-29T12:59:21.302Z,98035.47
2022-07-29T13:01:50.407Z,98030.91
2022-07-29T13:04:32.578Z,98036.16
2022-07-29T13:07:08.322Z,98030.75
2022-07-29T13:09:43.704Z,98009.53
2022-07-29T13:12:12.151Z,98015.94
2022-07-29T13:14:44.365Z,98010.44
2022-07-29T13:17:16.841Z,98003.31
2022-07-29T13:19:45.658Z,98022.03
2022-07-29T13:22:15.472Z,98032.19
2022-07-29T13:25:04.787Z,98024.88
2022-07-29T13:27:33.655Z,98018.22
2022-07-29T13:30:02.775Z,98008.50
2022-07-29T13:32:31.089Z,98015.75
2022-07-29T13:35:05.620Z,98012.13
2022-07-29T13:37:35.155Z,98023.38
2022-07-29T13:40:04.111Z,98024.38
2022-07-29T13:42:32.281Z,98010.69
2022-07-29T13:45:01.420Z,98017.56
2022-07-29T13:47:32.487Z,98017.19
2022-07-29T13:50:01.805Z,98013.78
2022-07-29T13:52:30.951Z,97997.38
2022-07-29T13:54:57.782Z,97993.22
2022-07-29T13:57:24.332Z,97960.56
2022-07-29T13:59:54.185Z,97926.72
2022-07-29T14:02:21.446Z,97795.78
2022-07-29T14:04:52.247Z,97778.97
2022-07-29T14:07:18.937Z,97775.53
2022-07-29T14:09:45.554Z,97768.91
2022-07-29T14:12:14.377Z,97737.06
2022-07-29T14:14:41.047Z,97704.09
2022-07-29T14:17:07.909Z,97697.59
2022-07-29T14:19:36.908Z,97651.47
2022-07-29T14:22:05.447Z,97598.66
2022-07-29T14:24:37.296Z,97595.19
2022-07-29T14:27:05.166Z,97655.22
2022-07-29T14:29:37.267Z,97652.53
2022-07-29T14:32:07.349Z,97662.13
2022-07-29T14:34:36.831Z,97663.38
2022-07-29T14:37:06.236Z,97617.41
2022-07-29T14:39:33.724Z,97643.72
2022-07-29T14:42:02.575Z,97580.22
2022-07-29T14:44:32.258Z,97620.78
2022-07-29T14:47:08.092Z,97617.28
2022-07-29T14:49:35.776Z,97640.88
2022-07-29T14:52:02.510Z,97655.22
2022-07-29T14:54:29.190Z,97673.38
2022-07-29T14:56:58.069Z,97718.63
2022-07-29T14:59:25.084Z,97775.41
2022-07-29T15:01:51.649Z,97771.94
2022-07-29T15:04:21.013Z,97772.50
2022-07-29T15:06:50.059Z,97792.34
2022-07-29T15:09:16.785Z,97800.84
2022-07-29T15:11:45.487Z,97822.03
2022-07-29T15:14:12.070Z,97829.09
2022-07-29T15:16:41.935Z,97886.00
2022-07-29T15:19:10.651Z,97949.03
2022-07-29T15:21:47.930Z,98004.53
2022-07-29T15:24:19.598Z,98058.47
2022-07-29T15:26:46.668Z,98119.31
2022-07-29T15:29:14.392Z,98140.41
2022-07-29T15:31:41.136Z,98213.69
2022-07-29T15:34:08.128Z,98275.75
2022-07-29T15:36:52.494Z,98361.94
2022-07-29T15:39:22.807Z,98338.66
2022-07-29T15:41:50.833Z,98329.03
2022-07-29T15:44:21.145Z,98403.56
2022-07-29T15:47:03.940Z,98429.03
2022-07-29T15:49:48.091Z,98450.59
2022-07-29T15:52:26.156Z,98504.09
2022-07-29T15:54:55.387Z,98523.22
2022-07-29T15:57:22.144Z,98528.09
2022-07-29T15:59:48.777Z,98546.50
2022-07-29T16:02:17.698Z,98551.22
2022-07-29T16:04:44.377Z,98549.75
2022-07-29T16:07:11.867Z,98557.97
2022-07-29T16:09:38.532Z,98559.31
2022-07-29T16:12:15.220Z,98549.09
2022-07-29T16:14:43.875Z,98543.25
2022-07-29T16:17:15.311Z,98547.00
2022-07-29T16:19:45.394Z,98557.84
2022-07-29T16:22:12.577Z,98561.78
2022-07-29T16:24:41.693Z,98556.56
2022-07-29T16:27:08.789Z,98546.38
2022-07-29T16:29:36.999Z,98527.19
2022-07-29T16:32:08.305Z,98506.94
2022-07-29T16:34:34.959Z,98518.66
2022-07-29T16:37:01.999Z,98500.09
2022-07-29T16:39:28.635Z,98497.88
2022-07-29T16:41:59.875Z,98516.97
2022-07-29T16:44:27.538Z,98517.59
2022-07-29T16:46:59.236Z,98490.19
2022-07-29T16:49:26.669Z,98481.06
2022-07-29T16:51:53.847Z,98502.56
2022-07-29T16:54:20.573Z,98504.84
2022-07-29T16:56:47.212Z,98496.69
2022-07-29T16:59:13.920Z,98505.06
2022-07-29T17:01:40.523Z,98486.44
2022-07-29T17:04:07.179Z,98489.34
2022-07-29T17:06:35.394Z,98471.75
2022-07-29T17:09:06.267Z,98472.63
2022-07-29T17:11:53.111Z,98472.09
2022-07-29T17:14:31.772Z,98488.06
2022-07-29T17:17:01.795Z,98495.00
2022-07-29T17:19:33.599Z,98510.34
2022-07-29T17:22:09.386Z,98528.97
2022-07-29T17:24:40.994Z,98538.41
2022-07-29T17:27:08.759Z,98544.81
2022-07-29T17:29:35.393Z,98551.63
2022-07-29T17:32:04.659Z,98558.28
2022-07-29T17:34:34.834Z,98548.56
2022-07-29T17:37:01.669Z,98547.09
2022-07-29T17:39:28.501Z,98547.88
2022-07-29T17:41:57.369Z,98543.50
2022-07-29T17:44:26.494Z,98526.22
2022-07-29T17:46:53.097Z,98526.13
2022-07-29T17:49:19.997Z,98541.66
2022-07-29T17:51:46.729Z,98546.66
2022-07-29T17:54:13.608Z,98509.75
2022-07-29T17:56:40.161Z,98508.22
2022-07-29T17:59:10.156Z,98509.34
2022-07-29T18:01:41.240Z,98516.56
2022-07-29T18:04:09.079Z,98515.31
2022-07-29T18:06:35.755Z,98512.00
2022-07-29T18:09:07.142Z,98490.53
2022-07-29T18:11:33.691Z,98515.63
2022-07-29T18:14:02.645Z,98506.63
2022-07-29T18:16:29.358Z,98504.78
2022-07-29T18:18:56.026Z,98509.06
2022-07-29T18:21:42.581Z,98509.72
2022-07-29T18:24:09.384Z,98505.31
2022-07-29T18:26:35.946Z,98512.44
2022-07-29T18:29:04.761Z,98521.25
2022-07-29T18:31:33.669Z,98524.59
2022-07-29T18:34:00.360Z,98509.13
2022-07-29T18:36:29.886Z,98509.72
2022-07-29T18:38:58.928Z,98503.00
2022-07-29T18:41:25.534Z,98516.66
2022-07-29T18:43:52.055Z,98529.94
2022-07-29T18:46:21.240Z,98516.13
2022-07-29T18:48:48.045Z,98528.81
2022-07-29T18:51:14.636Z,98530.22
2022-07-29T18:53:43.390Z,98547.09
2022-07-29T18:56:10.229Z,98554.38
2022-07-29T18:58:39.521Z,98554.56
2022-07-29T19:01:06.420Z,98562.66
2022-07-29T19:03:35.248Z,98560.81
2022-07-29T19:06:02.081Z,98567.56
2022-07-29T19:08:28.672Z,98558.00
2022-07-29T19:10:58.433Z,98556.69
2022-07-29T19:13:27.515Z,98557.13
2022-07-29T19:15:54.202Z,98572.78
2022-07-29T19:18:20.764Z,98559.13
2022-07-29T19:20:47.334Z,98571.81
2022-07-29T19:23:13.961Z,98582.56
2022-07-29T19:25:53.697Z,98573.69
2022-07-29T19:28:21.291Z,98581.66
2022-07-29T19:30:52.907Z,98583.50
2022-07-29T19:33:22.136Z,98588.47
2022-07-29T19:35:54.299Z,98590.53
2022-07-29T19:38:21.426Z,98592.47
2022-07-29T19:40:51.151Z,98620.00
2022-07-29T19:43:51.149Z,98628.69
2022-07-29T19:46:09.679Z,98622.69
2022-07-29T19:48:36.880Z,98630.34
2022-07-29T19:51:06.293Z,98638.03
2022-07-29T19:53:33.318Z,98644.28
2022-07-29T19:55:59.889Z,98648.38
2022-07-29T19:58:26.926Z,98647.50
2022-07-29T20:00:53.781Z,98655.13
2022-07-29T20:03:20.372Z,98631.13
2022-07-29T20:05:50.880Z,98647.53
2022-07-29T20:08:18.263Z,98656.34
2022-07-29T20:10:45.020Z,98660.06
2022-07-29T20:13:11.802Z,98660.81
2022-07-29T20:15:38.457Z,98665.75
2022-07-29T20:18:05.241Z,98665.88
2022-07-29T20:20:34.276Z,98667.44
2022-07-29T20:23:03.669Z,98648.59
2022-07-29T20:25:30.428Z,98655.81
2022-07-29T20:27:56.969Z,98658.84
2022-07-29T20:30:23.565Z,98660.00
2022-07-29T20:32:52.890Z,98646.19
2022-07-29T20:35:19.804Z,98642.88
2022-07-29T20:37:51.397Z,98640.84
2022-07-29T20:40:23.880Z,98646.31
2022-07-29T20:42:50.455Z,98662.19
2022-07-29T20:45:19.998Z,98651.94
2022-07-29T20:47:46.599Z,98670.19
2022-07-29T20:50:13.106Z,98654.63
2022-07-29T20:52:41.026Z,98649.66
2022-07-29T20:55:10.350Z,98658.06
2022-07-29T20:57:39.390Z,98649.75
2022-07-29T21:00:09.711Z,98654.69
2022-07-29T21:02:40.457Z,98655.66
2022-07-29T21:05:27.525Z,98650.78
2022-07-29T21:08:14.770Z,98661.34
2022-07-29T21:11:04.012Z,98665.97
2022-07-29T21:13:50.876Z,98645.72
2022-07-29T21:16:38.579Z,98633.53
2022-07-29T21:19:25.833Z,98636.09
2022-07-29T21:22:12.924Z,98633.84
2022-07-29T21:25:00.047Z,98624.72
2022-07-29T21:28:05.320Z,98631.81
2022-07-29T21:30:55.985Z,98610.56
2022-07-29T21:33:45.715Z,98609.69
2022-07-29T21:36:50.390Z,98601.75
2022-07-29T21:39:37.265Z,98602.59
2022-07-29T21:42:26.806Z,98595.41
2022-07-29T21:45:13.837Z,98598.53
2022-07-29T21:48:00.746Z,98610.22
2022-07-29T21:50:51.229Z,98595.47
2022-07-29T21:53:38.131Z,98591.16
2022-07-29T21:56:27.575Z,98569.69
2022-07-29T21:59:14.834Z,98577.97
2022-07-29T22:02:01.910Z,98586.59
2022-07-29T22:04:48.864Z,98590.22
2022-07-29T22:07:55.568Z,98587.31
2022-07-29T22:10:42.995Z,98584.06
2022-07-29T22:13:29.856Z,98587.72
2022-07-29T22:16:16.709Z,98572.25
2022-07-29T22:19:04.146Z,98573.75
2022-07-29T22:21:51.072Z,98573.22
2022-07-29T22:24:38.865Z,98575.69
2022-07-29T22:27:25.773Z,98589.34
2022-07-29T22:30:15.628Z,98588.25
2022-07-29T22:33:02.515Z,98587.50
2022-07-29T22:35:49.410Z,98585.03
2022-07-29T22:38:36.498Z,98576.81
2022-07-29T22:41:23.352Z,98573.03
2022-07-29T22:44:10.265Z,98563.09
2022-07-29T22:46:57.697Z,98577.59
2022-07-29T22:49:45.124Z,98574.53
2022-07-29T22:52:32.024Z,98586.06
2022-07-29T22:55:21.298Z,98574.81
2022-07-29T22:58:08.172Z,98574.25
2022-07-29T23:00:57.623Z,98578.16
2022-07-29T23:03:50.881Z,98564.66
2022-07-29T23:06:38.494Z,98560.50
2022-07-29T23:09:25.468Z,98545.66
2022-07-29T23:12:12.317Z,98545.00
2022-07-29T23:15:01.516Z,98540.44
2022-07-29T23:17:51.476Z,98543.41
2022-07-29T23:20:38.685Z,98539.13
2022-07-29T23:23:25.573Z,98532.06
2022-07-29T23:26:19.130Z,98538.56
2022-07-29T23:29:06.010Z,98532.56
2022-07-29T23:31:52.855Z,98536.25
2022-07-29T23:34:39.698Z,98517.97
2022-07-29T23:37:26.964Z,98524.94
2022-07-29T23:40:17.016Z,98527.09
2022-07-29T23:43:08.489Z,98529.91
2022-07-29T23:45:56.237Z,98523.84
2022-07-29T23:48:45.197Z,98538.47
2022-07-29T23:51:36.755Z,98536.16
2022-07-29T23:54:23.633Z,98533.94
2022-07-29T23:57:10.468Z,98536.66
2022-07-29T23:59:57.377Z,98542.34
